createdAt,value
2022-08-04T00:00:10.062Z,24.48
2022-08-04T00:02:49.349Z,24.51
2022-08-04T00:05:34.747Z,24.52
2022-08-04T00:08:06.670Z,24.49
2022-08-04T00:10:35.259Z,24.49
2022-08-04T00:13:04.821Z,24.50
2022-08-04T00:15:34.446Z,24.51
2022-08-04T00:18:09.591Z,24.49
2022-08-04T00:20:42.527Z,24.47
2022-08-04T00:23:11.091Z,24.46
2022-08-04T00:25:41.727Z,24.46
2022-08-04T00:28:09.636Z,24.41
2022-08-04T00:30:37.581Z,24.43
2022-08-04T00:33:05.201Z,24.38
2022-08-04T00:35:33.590Z,24.39
2022-08-04T00:38:02.806Z,24.39
2022-08-04T00:40:48.264Z,24.33
2022-08-04T00:43:33.740Z,24.34
2022-08-04T00:46:19.219Z,24.37
2022-08-04T00:49:10.749Z,24.38
2022-08-04T00:51:41.035Z,24.35
2022-08-04T00:54:36.059Z,24.33
2022-08-04T00:57:30.177Z,24.32
2022-08-04T01:00:16.421Z,24.23
2022-08-04T01:02:46.720Z,24.24
2022-08-04T01:05:45.231Z,24.16
2022-08-04T01:08:46.472Z,24.14
2022-08-04T01:11:32.542Z,24.16
2022-08-04T01:14:34.132Z,24.12
2022-08-04T01:17:23.935Z,24.12
2022-08-04T01:20:02.430Z,24.12
2022-08-04T01:23:00.026Z,24.11
2022-08-04T01:26:42.535Z,24.10
2022-08-04T01:29:07.404Z,24.01
2022-08-04T01:31:43.500Z,23.97
2022-08-04T01:34:13.551Z,23.91
2022-08-04T01:36:50.142Z,23.91
2022-08-04T01:39:39.711Z,23.90
2022-08-04T01:42:09.693Z,23.87
2022-08-04T01:44:39.913Z,23.85
2022-08-04T01:47:08.988Z,23.86
2022-08-04T01:49:40.669Z,23.84
2022-08-04T01:52:10.554Z,23.83
2022-08-04T01:54:41.491Z,23.78
2022-08-04T01:57:31.274Z,23.80
2022-08-04T02:00:01.343Z,23.76
2022-08-04T02:02:31.673Z,23.68
2022-08-04T02:04:59.340Z,23.65
2022-08-04T02:08:04.355Z,23.57
2022-08-04T02:10:59.496Z,23.54
2022-08-04T02:13:44.501Z,23.52
2022-08-04T02:16:46.947Z,23.46
2022-08-04T02:19:46.620Z,23.41
2022-08-04T02:22:18.764Z,23.43
2022-08-04T02:24:49.808Z,23.43
2022-08-04T02:27:28.326Z,23.44
2022-08-04T02:30:18.537Z,23.38
2022-08-04T02:32:49.079Z,23.36
2022-08-04T02:35:26.877Z,23.29
2022-08-04T02:38:25.789Z,23.30
2022-08-04T02:40:59.325Z,23.34
2022-08-04T02:43:51.212Z,23.39
2022-08-04T02:46:19.657Z,23.41
2022-08-04T02:48:49.541Z,23.43
2022-08-04T02:51:20.649Z,23.49
2022-08-04T02:53:52.638Z,23.51
2022-08-04T02:56:21.973Z,23.49
2022-08-04T02:58:58.391Z,23.41
2022-08-04T03:01:27.088Z,23.38
2022-08-04T03:04:32.137Z,23.33
2022-08-04T03:07:36.735Z,23.35
2022-08-04T03:10:10.058Z,23.38
2022-08-04T03:13:02.574Z,23.34
2022-08-04T03:15:58.540Z,23.30
2022-08-04T03:18:53.817Z,23.28
2022-08-04T03:21:48.436Z,23.23
2022-08-04T03:24:40.590Z,23.21
2022-08-04T03:27:23.236Z,23.21
2022-08-04T03:30:09.616Z,23.29
2022-08-04T03:33:04.776Z,23.34
2022-08-04T03:35:54.051Z,23.35
2022-08-04T03:38:58.552Z,23.28
2022-08-04T03:42:03.206Z,23.26
2022-08-04T03:44:56.402Z,23.25
2022-08-04T03:47:45.867Z,23.44
2022-08-04T03:50:38.190Z,23.69
2022-08-04T03:53:23.780Z,23.98
2022-08-04T03:56:03.150Z,24.18
2022-08-04T03:58:48.916Z,24.45
2022-08-04T04:01:27.231Z,24.75
2022-08-04T04:04:29.810Z,25.30
2022-08-04T04:07:22.654Z,25.85
2022-08-04T04:10:09.589Z,26.43
2022-08-04T04:12:58.401Z,26.94
2022-08-04T04:15:49.540Z,27.46
2022-08-04T04:18:42.511Z,27.74
2022-08-04T04:21:24.999Z,27.91
2022-08-04T04:24:19.126Z,27.97
2022-08-04T04:26:59.426Z,28.09
2022-08-04T04:29:39.372Z,27.95
2022-08-04T04:32:22.786Z,28.20
2022-08-04T04:35:12.461Z,28.02
2022-08-04T04:38:02.550Z,28.64
2022-08-04T04:40:44.990Z,29.15
2022-08-04T04:43:50.449Z,29.17
2022-08-04T04:46:46.111Z,29.37
2022-08-04T04:49:41.040Z,29.56
2022-08-04T04:52:26.660Z,29.77
2022-08-04T04:55:00.458Z,30.19
2022-08-04T04:57:54.079Z,30.03
2022-08-04T05:00:20.141Z,29.88
2022-08-04T05:03:09.276Z,29.80
2022-08-04T05:05:37.162Z,29.74
2022-08-04T05:08:43.650Z,29.75
2022-08-04T05:11:34.853Z,29.74
2022-08-04T05:14:36.884Z,29.79
2022-08-04T05:17:04.913Z,30.00
2022-08-04T05:19:57.641Z,30.34
2022-08-04T05:22:46.330Z,30.21
2022-08-04T05:25:19.831Z,30.29
2022-08-04T05:27:56.484Z,29.83
2022-08-04T05:30:27.281Z,29.43
2022-08-04T05:33:03.709Z,29.24
2022-08-04T05:35:50.501Z,29.42
2022-08-04T05:38:26.813Z,29.45
2022-08-04T05:40:55.704Z,30.01
2022-08-04T05:43:25.113Z,30.13
2022-08-04T05:45:53.733Z,30.35
2022-08-04T05:48:21.529Z,30.92
2022-08-04T05:50:49.896Z,30.95
2022-08-04T05:53:19.412Z,30.89
2022-08-04T05:55:58.382Z,30.59
2022-08-04T05:58:31.046Z,30.48
2022-08-04T06:01:02.588Z,30.23
2022-08-04T06:03:31.924Z,30.25
2022-08-04T06:06:01.347Z,30.16
2022-08-04T06:08:30.799Z,30.27
2022-08-04T06:11:06.025Z,30.27
2022-08-04T06:13:49.729Z,30.35
2022-08-04T06:16:28.866Z,30.56
2022-08-04T06:20:00.445Z,30.92
2022-08-04T06:21:54.443Z,30.13
2022-08-04T06:24:26.536Z,30.03
2022-08-04T06:26:55.671Z,30.38
2022-08-04T06:29:30.999Z,30.82
2022-08-04T06:32:27.436Z,31.24
2022-08-04T06:34:59.072Z,31.26
2022-08-04T06:37:42.629Z,31.62
2022-08-04T06:40:30.417Z,31.80
2022-08-04T06:43:03.414Z,31.26
2022-08-04T06:45:34.802Z,30.74
2022-08-04T06:48:05.224Z,30.58
2022-08-04T06:51:32.751Z,30.26
2022-08-04T06:53:24.423Z,30.38
2022-08-04T06:55:53.508Z,30.42
2022-08-04T06:58:23.263Z,30.73
2022-08-04T07:00:51.751Z,30.87
2022-08-04T07:03:21.900Z,31.24
2022-08-04T07:05:51.602Z,30.98
2022-08-04T07:08:20.172Z,30.68
2022-08-04T07:10:48.914Z,30.90
2022-08-04T07:13:18.399Z,31.19
2022-08-04T07:15:47.509Z,31.62
2022-08-04T07:18:15.374Z,31.69
2022-08-04T07:20:44.754Z,31.79
2022-08-04T07:23:19.961Z,31.52
2022-08-04T07:26:12.719Z,31.40
2022-08-04T07:28:42.067Z,31.58
2022-08-04T07:31:35.211Z,32.27
2022-08-04T07:34:16.616Z,32.52
2022-08-04T07:36:52.709Z,32.87
2022-08-04T07:39:28.290Z,33.26
2022-08-04T07:41:58.893Z,33.52
2022-08-04T07:44:27.174Z,32.96
2022-08-04T07:46:55.394Z,32.89
2022-08-04T07:49:56.494Z,33.06
2022-08-04T07:52:12.894Z,33.03
2022-08-04T07:54:41.555Z,33.26
2022-08-04T07:57:09.095Z,33.24
2022-08-04T07:59:50.354Z,33.11
2022-08-04T08:02:21.570Z,32.72
2022-08-04T08:04:49.585Z,32.92
2022-08-04T08:07:20.258Z,33.93
2022-08-04T08:09:48.362Z,34.82
2022-08-04T08:12:36.767Z,34.95
2022-08-04T08:15:05.964Z,35.41
2022-08-04T08:17:59.757Z,35.80
2022-08-04T08:20:29.809Z,36.49
2022-08-04T08:22:58.716Z,36.64
2022-08-04T08:25:26.552Z,36.71
2022-08-04T08:27:56.087Z,36.39
2022-08-04T08:30:31.936Z,36.56
2022-08-04T08:33:07.223Z,36.20
2022-08-04T08:36:13.864Z,36.23
2022-08-04T08:38:49.801Z,36.26
2022-08-04T08:41:45.353Z,36.86
2022-08-04T08:44:37.677Z,36.89
2022-08-04T08:47:05.823Z,36.78
2022-08-04T08:50:15.382Z,37.05
2022-08-04T08:53:01.103Z,36.95
2022-08-04T08:55:49.133Z,36.63
2022-08-04T08:58:35.153Z,36.49
2022-08-04T09:01:33.506Z,36.66
2022-08-04T09:04:32.222Z,36.29
2022-08-04T09:07:18.523Z,36.09
2022-08-04T09:10:06.392Z,36.19
2022-08-04T09:12:46.242Z,35.57
2022-08-04T09:15:42.153Z,35.79
2022-08-04T09:18:45.102Z,36.44
2022-08-04T09:21:39.774Z,36.11
2022-08-04T09:24:35.882Z,36.38
2022-08-04T09:27:18.840Z,36.13
2022-08-04T09:30:07.154Z,35.94
2022-08-04T09:32:56.683Z,36.36
2022-08-04T09:35:44.423Z,36.97
2022-08-04T09:38:36.271Z,36.42
2022-08-04T09:41:49.213Z,36.75
2022-08-04T09:44:49.869Z,36.45
2022-08-04T09:47:55.033Z,36.26
2022-08-04T09:50:41.443Z,36.12
2022-08-04T09:53:55.262Z,35.92
2022-08-04T09:56:36.969Z,35.85
2022-08-04T09:59:36.904Z,36.06
2022-08-04T10:02:09.610Z,36.21
2022-08-04T10:04:40.984Z,36.29
2022-08-04T10:07:42.613Z,37.05
2022-08-04T10:10:47.334Z,37.29
2022-08-04T10:13:35.124Z,37.13
2022-08-04T10:16:29.913Z,37.00
2022-08-04T10:19:09.212Z,37.17
2022-08-04T10:21:59.120Z,37.22
2022-08-04T10:24:39.572Z,37.05
2022-08-04T10:27:17.316Z,36.81
2022-08-04T10:29:47.413Z,36.89
2022-08-04T10:32:26.523Z,36.82
2022-08-04T10:35:22.068Z,37.05
2022-08-04T10:38:08.043Z,37.68
2022-08-04T10:41:04.573Z,37.54
2022-08-04T10:44:09.154Z,37.80
2022-08-04T10:46:46.502Z,37.51
2022-08-04T10:49:38.033Z,36.75
2022-08-04T10:52:42.803Z,36.26
2022-08-04T10:55:18.420Z,36.89
2022-08-04T10:57:56.223Z,37.20
2022-08-04T11:00:26.002Z,37.33
2022-08-04T11:03:34.460Z,37.13
2022-08-04T11:10:09.947Z,37.69
2022-08-04T11:12:40.857Z,37.45
2022-08-04T11:15:19.031Z,37.63
2022-08-04T11:18:06.822Z,37.71
2022-08-04T11:21:10.112Z,36.95
2022-08-04T11:23:42.892Z,36.90
2022-08-04T11:26:22.207Z,36.86
2022-08-04T11:29:03.767Z,36.81
2022-08-04T11:31:35.594Z,36.61
2022-08-04T11:34:11.691Z,36.88
2022-08-04T11:36:54.949Z,36.96
2022-08-04T11:39:46.086Z,36.79
2022-08-04T11:42:23.246Z,36.54
2022-08-04T11:44:56.913Z,36.98
2022-08-04T11:47:24.691Z,37.29
2022-08-04T11:50:03.633Z,37.63
2022-08-04T11:52:34.286Z,37.28
2022-08-04T11:55:07.340Z,37.34
2022-08-04T11:57:36.656Z,37.29
2022-08-04T12:00:09.353Z,37.06
2022-08-04T12:03:31.076Z,37.10
2022-08-04T12:06:19.239Z,37.10
2022-08-04T12:09:03.630Z,37.66
2022-08-04T12:11:52.031Z,37.61
2022-08-04T12:14:41.459Z,37.89
2022-08-04T12:17:11.180Z,37.78
2022-08-04T12:20:40.719Z,37.30
2022-08-04T12:22:58.399Z,37.18
2022-08-04T12:25:35.131Z,37.57
2022-08-04T12:28:12.590Z,37.78
2022-08-04T12:31:02.138Z,37.34
2022-08-04T12:34:04.695Z,37.47
2022-08-04T12:36:43.389Z,37.51
2022-08-04T12:39:15.954Z,37.46
2022-08-04T12:42:03.152Z,37.29
2022-08-04T12:44:40.021Z,37.09
2022-08-04T12:47:25.854Z,36.94
2022-08-04T12:50:02.316Z,36.78
2022-08-04T12:52:59.181Z,37.36
2022-08-04T12:55:25.346Z,37.38
2022-08-04T12:57:54.962Z,36.96
2022-08-04T13:00:43.145Z,37.14
2022-08-04T13:03:14.363Z,37.47
2022-08-04T13:05:43.080Z,37.05
2022-08-04T13:08:12.200Z,36.86
2022-08-04T13:10:46.403Z,36.45
2022-08-04T13:13:18.715Z,36.49
2022-08-04T13:16:03.304Z,36.24
2022-08-04T13:18:34.975Z,36.52
2022-08-04T13:21:21.143Z,36.57
2022-08-04T13:24:10.880Z,36.58
2022-08-04T13:26:57.001Z,36.50
2022-08-04T13:29:57.908Z,36.64
2022-08-04T13:32:24.672Z,36.87
2022-08-04T13:34:55.229Z,36.95
2022-08-04T13:37:27.091Z,36.55
2022-08-04T13:39:57.548Z,36.24
2022-08-04T13:42:27.192Z,36.47
2022-08-04T13:44:58.916Z,36.65
2022-08-04T13:47:32.196Z,36.14
2022-08-04T13:50:11.559Z,35.94
2022-08-04T13:52:41.715Z,36.17
2022-08-04T13:55:20.036Z,36.18
2022-08-04T13:57:53.422Z,36.30
2022-08-04T14:00:30.152Z,36.18
2022-08-04T14:03:23.487Z,36.38
2022-08-04T14:06:13.583Z,36.58
2022-08-04T14:08:48.505Z,36.86
2022-08-04T14:12:10.581Z,36.96
2022-08-04T14:14:32.875Z,37.25
2022-08-04T14:17:02.132Z,37.26
2022-08-04T14:19:48.674Z,37.05
2022-08-04T14:22:31.214Z,37.14
2022-08-04T14:25:15.502Z,36.43
2022-08-04T14:27:54.093Z,36.32
2022-08-04T14:30:33.793Z,36.27
2022-08-04T14:34:01.242Z,36.48
2022-08-04T14:36:01.539Z,36.63
2022-08-04T14:38:43.927Z,36.78
2022-08-04T14:41:12.324Z,36.48
2022-08-04T14:43:57.825Z,36.38
2022-08-04T14:46:30.303Z,35.97
2022-08-04T14:49:12.560Z,36.01
2022-08-04T14:51:45.840Z,35.96
2022-08-04T14:54:18.098Z,36.08
2022-08-04T14:56:55.176Z,36.12
2022-08-04T14:59:24.657Z,36.00
2022-08-04T15:02:00.983Z,35.44
2022-08-04T15:04:31.722Z,35.83
2022-08-04T15:07:00.877Z,35.73
2022-08-04T15:09:36.085Z,35.38
2022-08-04T15:12:04.593Z,35.54
2022-08-04T15:14:36.175Z,35.61
2022-08-04T15:17:11.969Z,35.35
2022-08-04T15:19:56.850Z,35.22
2022-08-04T15:22:24.857Z,35.17
2022-08-04T15:24:55.172Z,35.03
2022-08-04T15:27:27.594Z,35.32
2022-08-04T15:30:01.912Z,35.01
2022-08-04T15:32:37.493Z,34.82
2022-08-04T15:35:13.095Z,34.79
2022-08-04T15:37:46.413Z,34.45
2022-08-04T15:40:33.109Z,34.05
2022-08-04T15:43:22.784Z,34.03
2022-08-04T15:46:02.146Z,34.11
2022-08-04T15:48:40.936Z,34.15
2022-08-04T15:51:14.177Z,33.96
2022-08-04T15:54:02.198Z,33.99
2022-08-04T15:56:29.989Z,33.84
2022-08-04T15:58:57.783Z,33.72
2022-08-04T16:01:27.764Z,33.55
2022-08-04T16:04:01.255Z,33.45
2022-08-04T16:06:30.484Z,33.27
2022-08-04T16:09:00.346Z,33.32
2022-08-04T16:11:33.061Z,33.46
2022-08-04T16:14:03.622Z,33.42
2022-08-04T16:16:37.128Z,33.28
2022-08-04T16:19:21.097Z,33.30
2022-08-04T16:21:50.154Z,33.22
2022-08-04T16:24:21.686Z,33.21
2022-08-04T16:27:00.649Z,33.32
2022-08-04T16:29:31.137Z,33.27
2022-08-04T16:32:05.065Z,33.25
2022-08-04T16:34:55.628Z,33.24
2022-08-04T16:37:29.923Z,33.13
2022-08-04T16:40:35.124Z,32.86
2022-08-04T16:43:09.942Z,32.88
2022-08-04T16:45:41.593Z,32.88
2022-08-04T16:48:10.695Z,32.62
2022-08-04T16:50:57.314Z,32.66
2022-08-04T16:53:52.672Z,32.56
2022-08-04T16:56:34.508Z,32.53
2022-08-04T16:59:13.221Z,32.46
2022-08-04T17:01:50.067Z,32.57
2022-08-04T17:04:18.392Z,32.41
2022-08-04T17:06:49.569Z,32.33
2022-08-04T17:09:19.070Z,32.26
2022-08-04T17:11:48.165Z,32.14
2022-08-04T17:14:25.570Z,32.00
2022-08-04T17:16:56.203Z,31.94
2022-08-04T17:19:26.535Z,31.84
2022-08-04T17:22:06.026Z,31.88
2022-08-04T17:24:35.771Z,31.88
2022-08-04T17:27:04.364Z,31.81
2022-08-04T17:29:51.447Z,31.75
2022-08-04T17:32:22.070Z,31.79
2022-08-04T17:34:52.199Z,31.67
2022-08-04T17:37:40.639Z,31.63
2022-08-04T17:40:13.170Z,31.53
2022-08-04T17:42:42.464Z,31.49
2022-08-04T17:45:51.368Z,31.36
2022-08-04T17:48:09.280Z,31.32
2022-08-04T17:50:43.475Z,31.24
2022-08-04T17:53:12.970Z,31.17
2022-08-04T17:55:49.610Z,31.09
2022-08-04T17:58:21.423Z,30.99
2022-08-04T18:03:52.924Z,30.80
2022-08-04T18:06:23.313Z,30.75
2022-08-04T18:08:59.071Z,30.70
2022-08-04T18:11:59.323Z,30.57
2022-08-04T18:14:29.194Z,30.55
2022-08-04T18:16:56.960Z,30.44
2022-08-04T18:19:24.563Z,30.29
2022-08-04T18:21:59.691Z,30.20
2022-08-04T18:24:35.058Z,30.10
2022-08-04T18:27:20.095Z,30.05
2022-08-04T18:30:15.090Z,30.01
2022-08-04T18:32:35.803Z,29.88
2022-08-04T18:35:05.281Z,29.84
2022-08-04T18:38:06.106Z,29.72
2022-08-04T18:40:30.116Z,29.59
2022-08-04T18:43:03.663Z,29.48
2022-08-04T18:45:34.346Z,29.38
2022-08-04T18:48:14.229Z,29.32
2022-08-04T18:51:11.237Z,29.24
2022-08-04T18:53:34.911Z,29.18
2022-08-04T18:56:06.359Z,29.15
2022-08-04T18:58:48.508Z,29.03
2022-08-04T19:01:16.159Z,28.95
2022-08-04T19:03:44.095Z,28.90
2022-08-04T19:06:14.412Z,28.86
2022-08-04T19:08:45.199Z,28.75
2022-08-04T19:11:37.287Z,28.72
2022-08-04T19:14:02.648Z,28.63
2022-08-04T19:16:33.026Z,28.56
2022-08-04T19:19:05.635Z,28.53
2022-08-04T19:22:00.317Z,28.49
2022-08-04T19:24:31.146Z,28.45
2022-08-04T19:27:06.712Z,28.38
2022-08-04T19:29:42.915Z,28.41
2022-08-04T19:32:14.632Z,28.31
2022-08-04T19:34:47.261Z,28.29
2022-08-04T19:40:07.597Z,28.18
2022-08-04T19:42:37.504Z,28.14
2022-08-04T19:45:06.422Z,28.16
2022-08-04T19:48:17.829Z,28.13
2022-08-04T19:50:23.922Z,28.11
2022-08-04T19:52:52.883Z,28.07
2022-08-04T19:55:36.828Z,28.03
2022-08-04T19:58:08.637Z,27.96
2022-08-04T20:00:38.111Z,27.90
2022-08-04T20:03:11.849Z,27.90
2022-08-04T20:05:54.952Z,27.87
2022-08-04T20:08:26.824Z,27.83
2022-08-04T20:10:56.481Z,27.81
2022-08-04T20:13:36.913Z,27.74
2022-08-04T20:16:29.542Z,27.71
2022-08-04T20:19:00.794Z,27.63
2022-08-04T20:24:39.068Z,27.50
2022-08-04T20:27:16.231Z,27.49
2022-08-04T20:29:46.116Z,27.45
2022-08-04T20:32:19.427Z,27.43
2022-08-04T20:34:48.632Z,27.37
2022-08-04T20:37:16.387Z,27.34
2022-08-04T20:39:44.339Z,27.36
2022-08-04T20:42:12.388Z,27.37
2022-08-04T20:44:46.221Z,27.35
2022-08-04T20:47:14.213Z,27.27
2022-08-04T20:49:42.690Z,27.26
2022-08-04T20:52:16.397Z,27.23
2022-08-04T20:54:58.222Z,27.20
2022-08-04T20:57:48.681Z,27.21
2022-08-04T21:00:14.148Z,27.19
2022-08-04T21:02:41.808Z,27.20
2022-08-04T21:05:12.139Z,27.16
2022-08-04T21:07:43.950Z,27.16
2022-08-04T21:13:04.362Z,27.15
2022-08-04T21:15:57.757Z,27.14
2022-08-04T21:18:29.190Z,27.13
2022-08-04T21:20:56.829Z,27.13
2022-08-04T21:23:24.364Z,27.12
2022-08-04T21:26:03.110Z,27.07
2022-08-04T21:28:31.971Z,27.04
2022-08-04T21:31:02.546Z,27.02
2022-08-04T21:33:50.710Z,27.05
2022-08-04T21:36:20.196Z,26.97
2022-08-04T21:38:51.787Z,26.98
2022-08-04T21:41:25.030Z,26.93
2022-08-04T21:43:55.139Z,26.94
2022-08-04T21:46:23.104Z,26.91
2022-08-04T21:48:51.080Z,26.91
2022-08-04T21:51:58.432Z,26.86
2022-08-04T21:54:16.955Z,26.84
2022-08-04T21:56:50.800Z,26.82
2022-08-04T21:59:28.531Z,26.82
2022-08-04T22:02:01.298Z,26.82
2022-08-04T22:04:30.658Z,26.78
2022-08-04T22:06:58.430Z,26.79
2022-08-04T22:09:31.237Z,26.80
2022-08-04T22:12:10.418Z,26.78
2022-08-04T22:14:40.619Z,26.81
2022-08-04T22:17:13.833Z,26.82
2022-08-04T22:19:54.767Z,26.84
2022-08-04T22:22:29.146Z,26.85
2022-08-04T22:25:06.265Z,26.81
2022-08-04T22:28:01.036Z,26.74
2022-08-04T22:30:36.757Z,26.66
2022-08-04T22:33:07.653Z,26.64
2022-08-04T22:35:49.072Z,26.67
2022-08-04T22:38:24.121Z,26.64
2022-08-04T22:41:01.880Z,26.60
2022-08-04T22:43:33.101Z,26.60
2022-08-04T22:46:05.347Z,26.58
2022-08-04T22:48:36.549Z,26.57
2022-08-04T22:51:05.918Z,26.53
2022-08-04T22:53:35.792Z,26.52
2022-08-04T22:56:10.225Z,26.52
2022-08-04T22:58:51.221Z,26.51
2022-08-04T23:01:19.448Z,26.47
2022-08-04T23:03:55.595Z,26.41
2022-08-04T23:06:28.313Z,26.43
2022-08-04T23:08:57.886Z,26.41
2022-08-04T23:11:36.721Z,26.44
2022-08-04T23:14:10.611Z,26.37
2022-08-04T23:16:40.617Z,26.36
2022-08-04T23:19:12.166Z,26.37
2022-08-04T23:21:47.351Z,26.37
2022-08-04T23:24:15.577Z,26.38
2022-08-04T23:26:43.230Z,26.32
2022-08-04T23:29:10.752Z,26.26
2022-08-04T23:31:40.756Z,26.18
2022-08-04T23:34:12.041Z,26.11
2022-08-04T23:36:40.861Z,26.13
2022-08-04T23:39:10.494Z,26.10
2022-08-04T23:41:54.589Z,26.08
2022-08-04T23:44:26.719Z,26.07
2022-08-04T23:47:01.913Z,26.05
2022-08-04T23:49:43.482Z,26.05
2022-08-04T23:52:23.224Z,26.04
2022-08-04T23:54:56.111Z,26.02
2022-08-04T23:57:23.622Z,26.05
2022-08-04T23:59:55.008Z,26.05
